createdAt,value
2022-11-25T00:05:02.660Z,7.90
2022-11-25T00:10:08.202Z,7.33
2022-11-25T00:15:12.958Z,7.77
2022-11-25T00:20:16.679Z,7.87
2022-11-25T00:25:20.061Z,8.17
2022-11-25T00:30:24.839Z,8.03
2022-11-25T00:35:28.270Z,7.73
2022-11-25T00:40:31.693Z,7.27
2022-11-25T00:45:36.574Z,6.80
2022-11-25T00:50:39.993Z,7.03
2022-11-25T00:56:00.751Z,7.80
2022-11-25T01:01:05.927Z,7.70
2022-11-25T01:06:11.183Z,7.80
2022-11-25T01:11:17.407Z,7.23
2022-11-25T01:16:22.568Z,7.37
2022-11-25T01:21:27.997Z,8.50
2022-11-25T01:26:31.461Z,7.57
2022-11-25T01:31:38.284Z,7.90
2022-11-25T01:36:41.927Z,8.43
2022-11-25T01:41:45.720Z,8.10
2022-11-25T01:47:04.836Z,8.33
2022-11-25T01:52:14.911Z,7.23
2022-11-25T01:57:25.821Z,8.40
2022-11-25T02:02:31.785Z,7.43
2022-11-25T02:07:38.817Z,7.93
2022-11-25T02:12:44.547Z,7.87
2022-11-25T02:17:49.411Z,8.20
2022-11-25T02:23:01.523Z,7.50
2022-11-25T02:28:08.876Z,7.33
2022-11-25T02:33:14.748Z,7.97
2022-11-25T02:38:23.636Z,8.00
2022-11-25T02:43:29.488Z,7.80
2022-11-25T02:49:06.773Z,7.93
2022-11-25T02:53:59.346Z,8.23
2022-11-25T02:59:05.720Z,7.60
2022-11-25T03:04:09.162Z,8.13
2022-11-25T03:09:12.654Z,8.77
2022-11-25T03:14:18.101Z,8.67
2022-11-25T03:19:21.536Z,8.20
2022-11-25T03:24:24.947Z,8.43
2022-11-25T03:29:29.847Z,9.40
2022-11-25T03:34:34.296Z,9.07
2022-11-25T03:39:38.974Z,9.77
2022-11-25T03:44:45.305Z,9.37
2022-11-25T03:49:49.051Z,9.90
2022-11-25T03:54:53.126Z,11.37
2022-11-25T04:00:00.272Z,10.90
2022-11-25T04:05:05.619Z,11.43
2022-11-25T04:10:10.624Z,12.83
2022-11-25T04:15:16.584Z,13.07
2022-11-25T04:20:21.113Z,13.13
2022-11-25T04:25:32.069Z,14.23
2022-11-25T04:30:38.232Z,13.87
2022-11-25T04:35:42.142Z,13.87
2022-11-25T04:40:47.077Z,13.67
2022-11-25T04:51:22.081Z,14.20
2022-11-25T04:56:29.545Z,13.97
2022-11-25T05:01:35.052Z,14.67
2022-11-25T05:06:54.145Z,15.47
2022-11-25T05:11:58.832Z,15.30
2022-11-25T05:17:03.971Z,16.23
2022-11-25T05:22:11.042Z,15.77
2022-11-25T05:27:15.166Z,15.13
2022-11-25T05:32:20.474Z,15.13
2022-11-25T05:37:24.708Z,15.43
2022-11-25T05:42:35.873Z,15.93
2022-11-25T05:47:42.842Z,16.07
2022-11-25T05:52:47.753Z,16.43
2022-11-25T05:57:51.241Z,16.67
2022-11-25T06:02:57.031Z,15.47
2022-11-25T06:08:00.564Z,15.93
2022-11-25T06:13:04.651Z,15.97
2022-11-25T06:18:09.671Z,15.47
2022-11-25T06:23:14.409Z,14.47
2022-11-25T06:28:17.989Z,13.30
2022-11-25T06:33:26.658Z,13.83
2022-11-25T06:38:31.387Z,13.30
2022-11-25T06:43:34.879Z,13.33
2022-11-25T06:48:39.726Z,11.03
2022-11-25T06:53:44.126Z,11.93
2022-11-25T06:58:48.714Z,12.07
2022-11-25T07:03:56.012Z,12.33
2022-11-25T07:08:59.719Z,12.57
2022-11-25T07:14:05.572Z,12.83
2022-11-25T07:19:12.693Z,12.63
2022-11-25T07:24:17.355Z,12.90
2022-11-25T07:29:51.678Z,13.87
2022-11-25T07:34:46.088Z,15.00
2022-11-25T07:39:49.455Z,14.27
2022-11-25T07:44:52.868Z,13.47
2022-11-25T07:50:23.618Z,9.20
2022-11-25T07:55:27.002Z,10.43
2022-11-25T08:00:30.444Z,11.77
2022-11-25T08:05:35.724Z,13.27
2022-11-25T08:10:41.303Z,13.30
2022-11-25T08:15:44.842Z,13.77
2022-11-25T08:20:49.633Z,12.67
2022-11-25T08:25:53.118Z,10.83
2022-11-25T08:31:03.411Z,11.20
2022-11-25T08:36:09.697Z,11.13
2022-11-25T08:41:14.589Z,10.77
2022-11-25T08:46:21.405Z,10.43
2022-11-25T08:51:28.885Z,9.90
2022-11-25T08:56:32.439Z,9.47
2022-11-25T09:01:35.963Z,9.50
2022-11-25T09:06:41.040Z,8.97
2022-11-25T09:11:44.473Z,9.47
2022-11-25T09:16:47.904Z,9.13
2022-11-25T09:21:52.663Z,8.37
2022-11-25T09:26:56.138Z,9.07
2022-11-25T09:31:59.742Z,9.77
2022-11-25T09:37:04.599Z,10.33
2022-11-25T09:42:43.547Z,11.47
2022-11-25T09:47:57.818Z,11.40
2022-11-25T09:53:12.299Z,10.77
2022-11-25T09:58:27.098Z,10.00
2022-11-25T10:03:39.077Z,8.67
2022-11-25T10:08:46.469Z,7.40
2022-11-25T10:13:56.054Z,8.40
2022-11-25T10:19:02.909Z,7.70
2022-11-25T10:24:14.566Z,8.60
2022-11-25T10:29:27.020Z,8.20
2022-11-25T10:34:38.118Z,9.60
2022-11-25T10:39:43.065Z,10.57
2022-11-25T10:44:46.437Z,10.07
2022-11-25T10:50:04.942Z,9.20
2022-11-25T10:55:15.550Z,10.63
2022-11-25T11:00:31.547Z,10.43
2022-11-25T11:05:35.129Z,10.97
2022-11-25T11:10:40.366Z,10.30
2022-11-25T11:15:48.059Z,11.23
2022-11-25T11:20:53.663Z,11.27
2022-11-25T11:26:01.853Z,11.27
2022-11-25T11:31:08.346Z,10.97
2022-11-25T11:36:27.069Z,10.73
2022-11-25T11:41:40.881Z,10.90
2022-11-25T11:47:03.207Z,10.87
2022-11-25T11:52:12.446Z,10.80
2022-11-25T11:57:30.225Z,10.77
2022-11-25T12:02:45.663Z,13.47
2022-11-25T12:08:03.131Z,10.73
2022-11-25T12:13:17.384Z,11.30
2022-11-25T12:18:33.927Z,11.43
2022-11-25T12:23:46.158Z,11.30
2022-11-25T12:28:56.385Z,11.70
2022-11-25T12:34:05.513Z,11.60
2022-11-25T12:39:20.161Z,12.73
2022-11-25T12:44:30.712Z,12.73
2022-11-25T12:49:43.954Z,11.00
2022-11-25T12:55:12.223Z,11.57
2022-11-25T13:06:18.435Z,12.67
2022-11-25T13:11:50.608Z,12.73
2022-11-25T13:16:57.734Z,12.80
2022-11-25T13:22:04.433Z,13.47
2022-11-25T13:27:30.575Z,13.33
2022-11-25T13:32:43.362Z,13.03
2022-11-25T13:37:46.818Z,12.90
2022-11-25T13:42:51.699Z,13.63
2022-11-25T13:48:05.082Z,13.10
2022-11-25T13:53:21.650Z,13.40
2022-11-25T13:58:26.948Z,13.03
2022-11-25T14:03:56.413Z,13.00
2022-11-25T14:09:05.386Z,13.17
2022-11-25T14:14:35.552Z,12.87
2022-11-25T14:20:05.418Z,13.83
2022-11-25T14:25:20.544Z,14.00
2022-11-25T14:30:24.703Z,14.17
2022-11-25T14:35:43.490Z,14.23
2022-11-25T14:40:55.045Z,14.07
2022-11-25T14:46:12.066Z,13.70
2022-11-25T14:51:18.681Z,15.60
2022-11-25T14:56:29.946Z,13.67
2022-11-25T15:01:35.919Z,13.40
2022-11-25T15:06:42.764Z,12.33
2022-11-25T15:11:46.678Z,14.23
2022-11-25T15:16:50.327Z,16.57
2022-11-25T15:22:22.604Z,16.70
2022-11-25T15:27:26.344Z,13.67
2022-11-25T15:32:34.003Z,14.13
2022-11-25T15:37:38.828Z,13.57
2022-11-25T15:42:43.862Z,16.17
2022-11-25T15:47:47.486Z,15.80
2022-11-25T15:52:56.449Z,13.70
2022-11-25T15:58:06.154Z,13.70
2022-11-25T16:03:21.103Z,14.00
2022-11-25T16:08:35.654Z,13.20
2022-11-25T16:13:40.548Z,12.67
2022-11-25T16:18:50.058Z,13.27
2022-11-25T16:23:58.724Z,14.50
2022-11-25T16:29:09.465Z,13.90
2022-11-25T16:34:15.712Z,15.53
2022-11-25T16:39:20.956Z,15.53
2022-11-25T16:44:26.309Z,16.40
2022-11-25T16:49:32.000Z,14.80
2022-11-25T16:54:37.837Z,15.80
2022-11-25T16:59:44.644Z,16.97
2022-11-25T17:04:49.001Z,18.63
2022-11-25T17:09:53.856Z,17.10
2022-11-25T17:14:59.676Z,15.83
2022-11-25T17:20:03.298Z,16.47
2022-11-25T17:25:09.335Z,17.20
2022-11-25T17:30:18.877Z,16.83
2022-11-25T17:35:22.721Z,17.33
2022-11-25T17:40:27.719Z,18.00
2022-11-25T17:45:31.722Z,18.20
2022-11-25T17:50:36.254Z,19.13
2022-11-25T17:55:43.468Z,18.90
2022-11-25T18:00:46.887Z,18.13
2022-11-25T18:05:50.288Z,18.47
2022-11-25T18:10:55.114Z,19.03
2022-11-25T18:15:58.583Z,19.17
2022-11-25T18:21:02.129Z,18.83
2022-11-25T18:26:07.357Z,16.27
2022-11-25T18:31:12.949Z,16.30
2022-11-25T18:36:16.659Z,14.17
2022-11-25T18:41:23.038Z,15.83
2022-11-25T18:46:26.826Z,14.80
2022-11-25T18:51:30.295Z,14.40
2022-11-25T18:56:36.100Z,14.07
2022-11-25T19:01:39.634Z,14.30
2022-11-25T19:06:43.559Z,15.53
2022-11-25T19:11:52.447Z,13.80
2022-11-25T19:16:56.355Z,13.03
2022-11-25T19:22:01.611Z,13.07
2022-11-25T19:27:06.607Z,13.43
2022-11-25T19:32:20.303Z,13.63
2022-11-25T19:37:24.318Z,13.37
2022-11-25T19:42:31.800Z,13.63
2022-11-25T19:47:35.358Z,14.20
2022-11-25T19:52:40.069Z,13.73
2022-11-25T19:57:44.970Z,13.57
2022-11-25T20:02:50.603Z,12.97
2022-11-25T20:07:54.096Z,12.17
2022-11-25T20:12:59.749Z,11.60
2022-11-25T20:18:03.180Z,11.27
2022-11-25T20:23:09.865Z,10.20
2022-11-25T20:28:18.517Z,11.37
2022-11-25T20:33:24.669Z,12.47
2022-11-25T20:38:31.316Z,11.50
2022-11-25T20:43:39.029Z,10.80
2022-11-25T20:48:42.610Z,10.20
2022-11-25T20:53:48.506Z,9.07
2022-11-25T20:58:53.660Z,9.47
2022-11-25T21:03:57.069Z,8.33
2022-11-25T21:09:02.610Z,9.37
2022-11-25T21:14:14.150Z,8.27
2022-11-25T21:19:17.632Z,7.73
2022-11-25T21:24:31.739Z,7.70
2022-11-25T21:29:36.797Z,8.20
2022-11-25T21:34:40.500Z,8.83
2022-11-25T21:39:44.098Z,8.33
2022-11-25T21:44:51.164Z,7.70
2022-11-25T21:49:54.710Z,8.60
2022-11-25T21:54:58.120Z,7.87
2022-11-25T22:00:03.018Z,7.83
2022-11-25T22:05:15.799Z,7.87
2022-11-25T22:10:19.578Z,8.00
2022-11-25T22:15:25.135Z,7.47
2022-11-25T22:20:30.992Z,8.30
2022-11-25T22:25:34.490Z,8.87
2022-11-25T22:30:39.340Z,8.13
2022-11-25T22:35:42.967Z,7.87
2022-11-25T22:40:50.898Z,7.63
2022-11-25T22:45:56.784Z,8.00
2022-11-25T22:51:00.173Z,7.87
2022-11-25T22:56:03.496Z,8.30
2022-11-25T23:01:14.418Z,8.23
2022-11-25T23:06:17.878Z,7.80
2022-11-25T23:11:21.986Z,7.87
2022-11-25T23:16:26.797Z,7.90
2022-11-25T23:21:30.360Z,8.17
2022-11-25T23:26:35.142Z,7.63
2022-11-25T23:31:41.133Z,8.30
2022-11-25T23:36:47.653Z,8.57
2022-11-25T23:41:51.788Z,8.20
2022-11-25T23:47:00.178Z,7.80
2022-11-25T23:52:08.041Z,7.83
2022-11-25T23:57:15.432Z,7.90
